sensor_id;sensor_type;location;lat;lon;timestamp;pressure;altitude;pressure_sealevel;temperature;humidity
28648;BME280;17137;51.494;-0.262;2022-11-23T00:00:16;50651.50;;;-145.72;86.20
28648;BME280;17137;51.494;-0.262;2022-11-23T00:00:46;50655.44;;;-145.72;85.94
28648;BME280;17137;51.494;-0.262;2022-11-23T00:01:18;50643.61;;;-145.72;86.01
28648;BME280;17137;51.494;-0.262;2022-11-23T00:01:50;50654.82;;;-145.72;86.68
28648;BME280;17137;51.494;-0.262;2022-11-23T00:02:20;50657.17;;;-145.72;86.94
28648;BME280;17137;51.494;-0.262;2022-11-23T00:02:52;50650.02;;;-145.72;86.66
28648;BME280;17137;51.494;-0.262;2022-11-23T00:03:22;50656.30;;;-145.72;86.49
28648;BME280;17137;51.494;-0.262;2022-11-23T00:03:57;50648.04;;;-145.72;86.34
28648;BME280;17137;51.494;-0.262;2022-11-23T00:04:27;50653.59;;;-145.72;86.38
28648;BME280;17137;51.494;-0.262;2022-11-23T00:04:58;50655.93;;;-145.72;87.07
28648;BME280;17137;51.494;-0.262;2022-11-23T00:05:29;50658.89;;;-145.72;87.17
28648;BME280;17137;51.494;-0.262;2022-11-23T00:06:01;50654.33;;;-145.72;87.05
28648;BME280;17137;51.494;-0.262;2022-11-23T00:06:32;50660.50;;;-145.72;87.21
28648;BME280;17137;51.494;-0.262;2022-11-23T00:07:02;50652.61;;;-145.72;87.26
28648;BME280;17137;51.494;-0.262;2022-11-23T00:07:33;50650.76;;;-145.72;87.14
28648;BME280;17137;51.494;-0.262;2022-11-23T00:08:03;50657.91;;;-145.72;87.09
28648;BME280;17137;51.494;-0.262;2022-11-23T00:08:34;50651.25;;;-145.72;86.95
28648;BME280;17137;51.494;-0.262;2022-11-23T00:09:06;50645.33;;;-145.72;86.97
28648;BME280;17137;51.494;-0.262;2022-11-23T00:09:36;50646.32;;;-145.72;86.70
28648;BME280;17137;51.494;-0.262;2022-11-23T00:10:07;50645.95;;;-145.72;87.13
28648;BME280;17137;51.494;-0.262;2022-11-23T00:10:38;50645.70;;;-145.72;87.34
28648;BME280;17137;51.494;-0.262;2022-11-23T00:11:08;50666.66;;;-145.72;87.30
28648;BME280;17137;51.494;-0.262;2022-11-23T00:11:44;50641.51;;;-145.72;87.33
28648;BME280;17137;51.494;-0.262;2022-11-23T00:12:14;50636.83;;;-145.72;87.06
28648;BME280;17137;51.494;-0.262;2022-11-23T00:12:45;50658.77;;;-145.72;86.95
28648;BME280;17137;51.494;-0.262;2022-11-23T00:13:15;50636.83;;;-145.72;87.02
28648;BME280;17137;51.494;-0.262;2022-11-23T00:13:46;50653.59;;;-145.72;87.22
28648;BME280;17137;51.494;-0.262;2022-11-23T00:14:16;50648.91;;;-145.72;87.34
28648;BME280;17137;51.494;-0.262;2022-11-23T00:14:47;50641.88;;;-145.72;87.28
28648;BME280;17137;51.494;-0.262;2022-11-23T00:15:17;50645.21;;;-145.72;86.91
28648;BME280;17137;51.494;-0.262;2022-11-23T00:15:47;50639.78;;;-145.72;86.81
28648;BME280;17137;51.494;-0.262;2022-11-23T00:16:19;50646.20;;;-145.72;87.06
28648;BME280;17137;51.494;-0.262;2022-11-23T00:16:50;50660.13;;;-145.72;87.26
28648;BME280;17137;51.494;-0.262;2022-11-23T00:17:20;50637.20;;;-145.72;87.43
28648;BME280;17137;51.494;-0.262;2022-11-23T00:17:50;50646.93;;;-145.72;87.42
28648;BME280;17137;51.494;-0.262;2022-11-23T00:18:21;50652.73;;;-145.72;87.47
28648;BME280;17137;51.494;-0.262;2022-11-23T00:19:20;50646.07;;;-145.72;86.92
28648;BME280;17137;51.494;-0.262;2022-11-23T00:19:51;50650.14;;;-145.72;87.26
28648;BME280;17137;51.494;-0.262;2022-11-23T00:20:21;50646.44;;;-145.72;87.38
28648;BME280;17137;51.494;-0.262;2022-11-23T00:20:51;50645.09;;;-145.72;87.24
28648;BME280;17137;51.494;-0.262;2022-11-23T00:21:23;50649.15;;;-145.72;87.19
28648;BME280;17137;51.494;-0.262;2022-11-23T00:21:54;50644.84;;;-145.72;87.23
28648;BME280;17137;51.494;-0.262;2022-11-23T00:22:24;50654.82;;;-145.72;87.51
28648;BME280;17137;51.494;-0.262;2022-11-23T00:22:55;50658.40;;;-145.72;87.53
28648;BME280;17137;51.494;-0.262;2022-11-23T00:23:25;50639.17;;;-145.72;87.41
28648;BME280;17137;51.494;-0.262;2022-11-23T00:23:56;50642.37;;;-145.72;87.27
28648;BME280;17137;51.494;-0.262;2022-11-23T00:24:26;50654.46;;;-145.72;87.00
28648;BME280;17137;51.494;-0.262;2022-11-23T00:24:56;50647.55;;;-145.72;87.02
28648;BME280;17137;51.494;-0.262;2022-11-23T00:25:27;50645.33;;;-145.72;87.25
28648;BME280;17137;51.494;-0.262;2022-11-23T00:25:57;50638.92;;;-145.72;87.22
28648;BME280;17137;51.494;-0.262;2022-11-23T00:26:27;50639.29;;;-145.72;87.20
28648;BME280;17137;51.494;-0.262;2022-11-23T00:26:58;50641.26;;;-145.72;87.07
28648;BME280;17137;51.494;-0.262;2022-11-23T00:27:29;50648.29;;;-145.72;87.10
28648;BME280;17137;51.494;-0.262;2022-11-23T00:27:59;50645.33;;;-145.72;86.97
28648;BME280;17137;51.494;-0.262;2022-11-23T00:28:30;50639.05;;;-145.72;86.73
28648;BME280;17137;51.494;-0.262;2022-11-23T00:29:00;50644.59;;;-145.72;86.71
28648;BME280;17137;51.494;-0.262;2022-11-23T00:29:31;50644.10;;;-145.72;87.01
28648;BME280;17137;51.494;-0.262;2022-11-23T00:30:01;50641.02;;;-145.72;87.06
28648;BME280;17137;51.494;-0.262;2022-11-23T00:30:31;50637.20;;;-145.72;86.83
28648;BME280;17137;51.494;-0.262;2022-11-23T00:31:01;50639.41;;;-145.72;86.71
28648;BME280;17137;51.494;-0.262;2022-11-23T00:31:32;50641.26;;;-145.72;86.85
28648;BME280;17137;51.494;-0.262;2022-11-23T00:32:02;50647.55;;;-145.72;86.92
28648;BME280;17137;51.494;-0.262;2022-11-23T00:32:33;50642.00;;;-145.72;86.85
28648;BME280;17137;51.494;-0.262;2022-11-23T00:33:03;50643.73;;;-145.72;86.68
28648;BME280;17137;51.494;-0.262;2022-11-23T00:33:33;50634.48;;;-145.72;86.67
28648;BME280;17137;51.494;-0.262;2022-11-23T00:34:04;50640.40;;;-145.72;86.41
28648;BME280;17137;51.494;-0.262;2022-11-23T00:34:34;50646.57;;;-145.72;86.51
28648;BME280;17137;51.494;-0.262;2022-11-23T00:35:05;50645.70;;;-145.72;86.48
28648;BME280;17137;51.494;-0.262;2022-11-23T00:35:35;50635.35;;;-145.72;86.37
28648;BME280;17137;51.494;-0.262;2022-11-23T00:36:09;50634.61;;;-145.72;86.49
28648;BME280;17137;51.494;-0.262;2022-11-23T00:36:40;50631.65;;;-145.72;86.38
28648;BME280;17137;51.494;-0.262;2022-11-23T00:37:10;50640.03;;;-145.72;86.13
28648;BME280;17137;51.494;-0.262;2022-11-23T00:37:40;50636.09;;;-145.72;86.42
28648;BME280;17137;51.494;-0.262;2022-11-23T00:38:11;50641.02;;;-145.72;86.45
28648;BME280;17137;51.494;-0.262;2022-11-23T00:38:42;50644.59;;;-145.72;86.71
28648;BME280;17137;51.494;-0.262;2022-11-23T00:39:12;50638.43;;;-145.72;86.79
28648;BME280;17137;51.494;-0.262;2022-11-23T00:39:43;50650.63;;;-145.72;86.77
28648;BME280;17137;51.494;-0.262;2022-11-23T00:40:13;50657.04;;;-145.72;87.06
28648;BME280;17137;51.494;-0.262;2022-11-23T00:40:44;50645.83;;;-145.72;87.19
28648;BME280;17137;51.494;-0.262;2022-11-23T00:41:16;50654.09;;;-145.72;87.06
28648;BME280;17137;51.494;-0.262;2022-11-23T00:41:47;50654.33;;;-145.72;87.50
28648;BME280;17137;51.494;-0.262;2022-11-23T00:42:17;50654.09;;;-145.72;88.03
28648;BME280;17137;51.494;-0.262;2022-11-23T00:42:47;50651.87;;;-145.72;87.98
28648;BME280;17137;51.494;-0.262;2022-11-23T00:43:17;50648.17;;;-145.72;87.45
28648;BME280;17137;51.494;-0.262;2022-11-23T00:43:48;50642.25;;;-145.72;87.30
28648;BME280;17137;51.494;-0.262;2022-11-23T00:44:18;50646.44;;;-145.72;87.53
28648;BME280;17137;51.494;-0.262;2022-11-23T00:44:49;50654.95;;;-145.72;87.84
28648;BME280;17137;51.494;-0.262;2022-11-23T00:45:19;50658.40;;;-145.72;87.83
28648;BME280;17137;51.494;-0.262;2022-11-23T00:45:49;50671.59;;;-145.72;87.83
28648;BME280;17137;51.494;-0.262;2022-11-23T00:46:21;50666.91;;;-145.72;88.07
28648;BME280;17137;51.494;-0.262;2022-11-23T00:46:52;50656.80;;;-145.72;87.66
28648;BME280;17137;51.494;-0.262;2022-11-23T00:47:22;50638.80;;;-145.72;87.35
28648;BME280;17137;51.494;-0.262;2022-11-23T00:47:52;50663.82;;;-145.72;87.47
28648;BME280;17137;51.494;-0.262;2022-11-23T00:48:23;50651.13;;;-145.72;87.39
28648;BME280;17137;51.494;-0.262;2022-11-23T00:48:55;50657.66;;;-145.72;87.17
28648;BME280;17137;51.494;-0.262;2022-11-23T00:49:26;50635.84;;;-145.72;86.98
28648;BME280;17137;51.494;-0.262;2022-11-23T00:49:56;50650.02;;;-145.72;87.04
28648;BME280;17137;51.494;-0.262;2022-11-23T00:50:26;50645.46;;;-145.72;86.88
28648;BME280;17137;51.494;-0.262;2022-11-23T00:50:57;50655.44;;;-145.72;86.88
28648;BME280;17137;51.494;-0.262;2022-11-23T00:51:30;50647.43;;;-145.72;86.93
28648;BME280;17137;51.494;-0.262;2022-11-23T00:52:00;50650.63;;;-145.72;86.87
28648;BME280;17137;51.494;-0.262;2022-11-23T00:52:31;50650.51;;;-145.72;86.73
28648;BME280;17137;51.494;-0.262;2022-11-23T00:53:01;50646.44;;;-145.72;86.77
28648;BME280;17137;51.494;-0.262;2022-11-23T00:53:31;50649.89;;;-145.72;86.84
28648;BME280;17137;51.494;-0.262;2022-11-23T00:54:02;50649.65;;;-145.72;86.89
28648;BME280;17137;51.494;-0.262;2022-11-23T00:54:33;50648.54;;;-145.72;86.94
28648;BME280;17137;51.494;-0.262;2022-11-23T00:55:04;50649.89;;;-145.72;86.93
28648;BME280;17137;51.494;-0.262;2022-11-23T00:55:35;50637.69;;;-145.72;86.79
28648;BME280;17137;51.494;-0.262;2022-11-23T00:56:05;50644.59;;;-145.72;86.97
28648;BME280;17137;51.494;-0.262;2022-11-23T00:56:36;50651.62;;;-145.72;87.40
28648;BME280;17137;51.494;-0.262;2022-11-23T00:57:06;50653.22;;;-145.72;87.63
28648;BME280;17137;51.494;-0.262;2022-11-23T00:57:36;50651.13;;;-145.72;87.48
28648;BME280;17137;51.494;-0.262;2022-11-23T00:58:07;50635.35;;;-145.72;87.63
28648;BME280;17137;51.494;-0.262;2022-11-23T00:58:37;50674.06;;;-145.72;88.54
28648;BME280;17137;51.494;-0.262;2022-11-23T00:59:08;50660.87;;;-145.72;88.58
28648;BME280;17137;51.494;-0.262;2022-11-23T00:59:38;50655.32;;;-145.72;88.39
28648;BME280;17137;51.494;-0.262;2022-11-23T01:00:10;50661.85;;;-145.72;88.26
28648;BME280;17137;51.494;-0.262;2022-11-23T01:00:40;50663.95;;;-145.72;88.34
28648;BME280;17137;51.494;-0.262;2022-11-23T01:01:12;50658.52;;;-145.72;88.18
28648;BME280;17137;51.494;-0.262;2022-11-23T01:01:43;50643.98;;;-145.72;88.04
28648;BME280;17137;51.494;-0.262;2022-11-23T01:02:13;50644.47;;;-145.72;87.67
28648;BME280;17137;51.494;-0.262;2022-11-23T01:02:43;50650.39;;;-145.72;87.36
28648;BME280;17137;51.494;-0.262;2022-11-23T01:03:14;50646.57;;;-145.72;87.11
28648;BME280;17137;51.494;-0.262;2022-11-23T01:03:47;50646.07;;;-145.72;87.43
28648;BME280;17137;51.494;-0.262;2022-11-23T01:04:17;50644.72;;;-145.72;87.28
28648;BME280;17137;51.494;-0.262;2022-11-23T01:04:48;50645.70;;;-145.72;87.20
28648;BME280;17137;51.494;-0.262;2022-11-23T01:05:18;50656.55;;;-145.72;87.18
28648;BME280;17137;51.494;-0.262;2022-11-23T01:05:48;50647.30;;;-145.72;87.28
28648;BME280;17137;51.494;-0.262;2022-11-23T01:06:20;50652.24;;;-145.72;87.80
28648;BME280;17137;51.494;-0.262;2022-11-23T01:06:54;50658.65;;;-145.72;88.40
28648;BME280;17137;51.494;-0.262;2022-11-23T01:07:27;50657.54;;;-145.72;88.32
28648;BME280;17137;51.494;-0.262;2022-11-23T01:07:57;50655.19;;;-145.72;88.01
28648;BME280;17137;51.494;-0.262;2022-11-23T01:08:28;50646.07;;;-145.72;87.89
28648;BME280;17137;51.494;-0.262;2022-11-23T01:09:00;50648.29;;;-145.72;88.17
28648;BME280;17137;51.494;-0.262;2022-11-23T01:09:31;50650.63;;;-145.72;87.92
28648;BME280;17137;51.494;-0.262;2022-11-23T01:10:02;50661.48;;;-145.72;88.37
28648;BME280;17137;51.494;-0.262;2022-11-23T01:10:32;50656.30;;;-145.72;88.50
28648;BME280;17137;51.494;-0.262;2022-11-23T01:11:05;50634.85;;;-145.72;88.69
28648;BME280;17137;51.494;-0.262;2022-11-23T01:11:36;50645.70;;;-145.72;88.75
28648;BME280;17137;51.494;-0.262;2022-11-23T01:12:07;50644.10;;;-145.72;88.86
28648;BME280;17137;51.494;-0.262;2022-11-23T01:12:37;50655.69;;;-145.72;88.90
28648;BME280;17137;51.494;-0.262;2022-11-23T01:13:08;50637.07;;;-145.72;88.91
28648;BME280;17137;51.494;-0.262;2022-11-23T01:13:39;50664.81;;;-145.72;88.88
28648;BME280;17137;51.494;-0.262;2022-11-23T01:14:10;50644.10;;;-145.72;88.70
28648;BME280;17137;51.494;-0.262;2022-11-23T01:14:41;50651.62;;;-145.72;88.76
28648;BME280;17137;51.494;-0.262;2022-11-23T01:15:11;50636.46;;;-145.72;88.39
28648;BME280;17137;51.494;-0.262;2022-11-23T01:15:48;50656.92;;;-145.72;88.59
28648;BME280;17137;51.494;-0.262;2022-11-23T01:16:20;50644.72;;;-145.72;88.68
28648;BME280;17137;51.494;-0.262;2022-11-23T01:16:51;50650.02;;;-145.72;88.42
28648;BME280;17137;51.494;-0.262;2022-11-23T01:17:21;50648.41;;;-145.72;88.14
28648;BME280;17137;51.494;-0.262;2022-11-23T01:17:51;50650.14;;;-145.72;88.14
28648;BME280;17137;51.494;-0.262;2022-11-23T01:18:22;50646.20;;;-145.72;87.73
28648;BME280;17137;51.494;-0.262;2022-11-23T01:18:53;50650.76;;;-145.72;87.48
28648;BME280;17137;51.494;-0.262;2022-11-23T01:19:24;50647.55;;;-145.72;87.41
28648;BME280;17137;51.494;-0.262;2022-11-23T01:19:54;50639.78;;;-145.72;87.20
28648;BME280;17137;51.494;-0.262;2022-11-23T01:20:24;50628.20;;;-145.72;87.03
28648;BME280;17137;51.494;-0.262;2022-11-23T01:20:55;50642.50;;;-145.72;87.00
28648;BME280;17137;51.494;-0.262;2022-11-23T01:21:27;50633.00;;;-145.72;87.28
28648;BME280;17137;51.494;-0.262;2022-11-23T01:21:58;50645.33;;;-145.72;87.92
28648;BME280;17137;51.494;-0.262;2022-11-23T01:22:28;50646.07;;;-145.72;87.91
28648;BME280;17137;51.494;-0.262;2022-11-23T01:22:59;50639.05;;;-145.72;87.90
28648;BME280;17137;51.494;-0.262;2022-11-23T01:23:29;50646.07;;;-145.72;87.95
28648;BME280;17137;51.494;-0.262;2022-11-23T01:24:03;50644.22;;;-145.72;87.86
28648;BME280;17137;51.494;-0.262;2022-11-23T01:24:34;50642.50;;;-145.72;87.86
28648;BME280;17137;51.494;-0.262;2022-11-23T01:25:05;50634.48;;;-145.72;87.78
28648;BME280;17137;51.494;-0.262;2022-11-23T01:25:35;50641.14;;;-145.72;87.62
28648;BME280;17137;51.494;-0.262;2022-11-23T01:26:07;50651.13;;;-145.72;87.57
28648;BME280;17137;51.494;-0.262;2022-11-23T01:26:38;50650.63;;;-145.72;87.63
28648;BME280;17137;51.494;-0.262;2022-11-23T01:27:08;50649.03;;;-145.72;87.96
28648;BME280;17137;51.494;-0.262;2022-11-23T01:27:39;50649.52;;;-145.72;88.02
28648;BME280;17137;51.494;-0.262;2022-11-23T01:28:14;50639.41;;;-145.72;87.76
28648;BME280;17137;51.494;-0.262;2022-11-23T01:28:44;50651.87;;;-145.72;88.07
28648;BME280;17137;51.494;-0.262;2022-11-23T01:29:15;50650.02;;;-145.72;87.98
28648;BME280;17137;51.494;-0.262;2022-11-23T01:29:45;50648.78;;;-145.72;88.11
28648;BME280;17137;51.494;-0.262;2022-11-23T01:30:16;50645.21;;;-145.72;88.59
28648;BME280;17137;51.494;-0.262;2022-11-23T01:30:46;50648.78;;;-145.72;88.54
28648;BME280;17137;51.494;-0.262;2022-11-23T01:31:18;50644.96;;;-145.72;88.28
28648;BME280;17137;51.494;-0.262;2022-11-23T01:31:48;50653.72;;;-145.72;88.31
28648;BME280;17137;51.494;-0.262;2022-11-23T01:32:19;50645.33;;;-145.72;88.35
28648;BME280;17137;51.494;-0.262;2022-11-23T01:32:49;50642.62;;;-145.72;88.26
28648;BME280;17137;51.494;-0.262;2022-11-23T01:33:19;50636.58;;;-145.72;88.05
28648;BME280;17137;51.494;-0.262;2022-11-23T01:33:52;50648.17;;;-145.72;88.23
28648;BME280;17137;51.494;-0.262;2022-11-23T01:34:23;50642.87;;;-145.72;88.53
28648;BME280;17137;51.494;-0.262;2022-11-23T01:34:53;50641.39;;;-145.72;88.72
28648;BME280;17137;51.494;-0.262;2022-11-23T01:35:23;50641.88;;;-145.72;88.52
28648;BME280;17137;51.494;-0.262;2022-11-23T01:35:53;50638.55;;;-145.72;88.24
28648;BME280;17137;51.494;-0.262;2022-11-23T01:36:26;50641.63;;;-145.72;88.12
28648;BME280;17137;51.494;-0.262;2022-11-23T01:36:57;50635.35;;;-145.72;88.13
28648;BME280;17137;51.494;-0.262;2022-11-23T01:37:27;50632.76;;;-145.72;88.17
28648;BME280;17137;51.494;-0.262;2022-11-23T01:37:57;50641.76;;;-145.72;88.37
28648;BME280;17137;51.494;-0.262;2022-11-23T01:38:28;50640.03;;;-145.72;88.52
28648;BME280;17137;51.494;-0.262;2022-11-23T01:39:00;50648.04;;;-145.72;88.51
28648;BME280;17137;51.494;-0.262;2022-11-23T01:39:30;50646.69;;;-145.72;88.55
28648;BME280;17137;51.494;-0.262;2022-11-23T01:40:01;50638.55;;;-145.72;88.40
28648;BME280;17137;51.494;-0.262;2022-11-23T01:40:39;50635.10;;;-145.72;88.14
28648;BME280;17137;51.494;-0.262;2022-11-23T01:41:12;50635.35;;;-145.72;87.83
28648;BME280;17137;51.494;-0.262;2022-11-23T01:41:48;50626.59;;;-145.72;87.63
28648;BME280;17137;51.494;-0.262;2022-11-23T01:42:18;50622.90;;;-145.72;87.77
28648;BME280;17137;51.494;-0.262;2022-11-23T01:42:53;50638.18;;;-145.72;87.75
28648;BME280;17137;51.494;-0.262;2022-11-23T01:43:23;50628.94;;;-145.72;87.59
28648;BME280;17137;51.494;-0.262;2022-11-23T01:43:59;50645.58;;;-145.72;87.75
28648;BME280;17137;51.494;-0.262;2022-11-23T01:44:31;50636.70;;;-145.72;87.85
28648;BME280;17137;51.494;-0.262;2022-11-23T01:45:32;50624.25;;;-145.72;87.87
28648;BME280;17137;51.494;-0.262;2022-11-23T01:46:04;50640.28;;;-145.72;88.27
28648;BME280;17137;51.494;-0.262;2022-11-23T01:46:34;50631.77;;;-145.72;88.41
28648;BME280;17137;51.494;-0.262;2022-11-23T01:47:06;50638.68;;;-145.72;88.53
28648;BME280;17137;51.494;-0.262;2022-11-23T01:47:37;50623.14;;;-145.72;88.43
28648;BME280;17137;51.494;-0.262;2022-11-23T01:48:12;50625.73;;;-145.72;88.25
28648;BME280;17137;51.494;-0.262;2022-11-23T01:48:48;50633.99;;;-145.72;88.31
28648;BME280;17137;51.494;-0.262;2022-11-23T01:49:20;50636.33;;;-145.72;88.74
28648;BME280;17137;51.494;-0.262;2022-11-23T01:49:52;50631.40;;;-145.72;88.87
28648;BME280;17137;51.494;-0.262;2022-11-23T01:50:22;50638.43;;;-145.72;89.00
28648;BME280;17137;51.494;-0.262;2022-11-23T01:50:53;50630.79;;;-145.72;88.95
28648;BME280;17137;51.494;-0.262;2022-11-23T01:51:27;50634.98;;;-145.72;88.74
28648;BME280;17137;51.494;-0.262;2022-11-23T01:52:02;50631.28;;;-145.72;88.56
28648;BME280;17137;51.494;-0.262;2022-11-23T01:52:33;50627.70;;;-145.72;88.71
28648;BME280;17137;51.494;-0.262;2022-11-23T01:53:03;50631.53;;;-145.72;88.95
28648;BME280;17137;51.494;-0.262;2022-11-23T01:53:34;50636.09;;;-145.72;88.97
28648;BME280;17137;51.494;-0.262;2022-11-23T01:54:09;50640.15;;;-145.72;88.82
28648;BME280;17137;51.494;-0.262;2022-11-23T01:54:45;50625.48;;;-145.72;88.51
28648;BME280;17137;51.494;-0.262;2022-11-23T01:55:23;50647.67;;;-145.72;88.82
28648;BME280;17137;51.494;-0.262;2022-11-23T01:55:59;50636.21;;;-145.72;89.18
28648;BME280;17137;51.494;-0.262;2022-11-23T01:56:33;50622.28;;;-145.72;88.99
28648;BME280;17137;51.494;-0.262;2022-11-23T01:57:08;50625.48;;;-145.72;88.73
28648;BME280;17137;51.494;-0.262;2022-11-23T01:57:41;50625.98;;;-145.72;88.22
28648;BME280;17137;51.494;-0.262;2022-11-23T01:58:15;50651.62;;;-145.72;89.05
28648;BME280;17137;51.494;-0.262;2022-11-23T01:58:51;50653.35;;;-145.72;89.52
28648;BME280;17137;51.494;-0.262;2022-11-23T01:59:22;50638.06;;;-145.72;89.39
28648;BME280;17137;51.494;-0.262;2022-11-23T01:59:55;50648.91;;;-145.72;89.44
28648;BME280;17137;51.494;-0.262;2022-11-23T02:00:27;50637.81;;;-145.72;89.32
28648;BME280;17137;51.494;-0.262;2022-11-23T02:00:57;50624.74;;;-145.72;89.30
28648;BME280;17137;51.494;-0.262;2022-11-23T02:01:28;50650.02;;;-145.72;89.12
28648;BME280;17137;51.494;-0.262;2022-11-23T02:01:59;50630.29;;;-145.72;88.86
28648;BME280;17137;51.494;-0.262;2022-11-23T02:02:30;50635.22;;;-145.72;88.65
28648;BME280;17137;51.494;-0.262;2022-11-23T02:03:03;50617.22;;;-145.72;88.57
28648;BME280;17137;51.494;-0.262;2022-11-23T02:03:36;50635.84;;;-145.72;88.93
28648;BME280;17137;51.494;-0.262;2022-11-23T02:04:09;50631.28;;;-145.72;89.19
28648;BME280;17137;51.494;-0.262;2022-11-23T02:04:43;50640.40;;;-145.72;90.60
28648;BME280;17137;51.494;-0.262;2022-11-23T02:05:17;50627.58;;;-145.72;90.16
28648;BME280;17137;51.494;-0.262;2022-11-23T02:05:55;50626.96;;;-145.72;89.84
28648;BME280;17137;51.494;-0.262;2022-11-23T02:06:29;50621.42;;;-145.72;89.78
28648;BME280;17137;51.494;-0.262;2022-11-23T02:07:02;50624.37;;;-145.72;89.68
28648;BME280;17137;51.494;-0.262;2022-11-23T02:07:34;50621.29;;;-145.72;89.74
28648;BME280;17137;51.494;-0.262;2022-11-23T02:08:05;50640.89;;;-145.72;90.47
28648;BME280;17137;51.494;-0.262;2022-11-23T02:08:36;50626.72;;;-145.72;90.75
28648;BME280;17137;51.494;-0.262;2022-11-23T02:09:07;50633.87;;;-145.72;90.48
28648;BME280;17137;51.494;-0.262;2022-11-23T02:09:38;50631.65;;;-145.72;89.92
28648;BME280;17137;51.494;-0.262;2022-11-23T02:10:09;50622.40;;;-145.72;89.68
28648;BME280;17137;51.494;-0.262;2022-11-23T02:10:39;50632.51;;;-145.72;89.21
28648;BME280;17137;51.494;-0.262;2022-11-23T02:11:10;50622.90;;;-145.72;88.78
28648;BME280;17137;51.494;-0.262;2022-11-23T02:11:42;50626.84;;;-145.72;88.83
28648;BME280;17137;51.494;-0.262;2022-11-23T02:12:13;50615.25;;;-145.72;89.45
28648;BME280;17137;51.494;-0.262;2022-11-23T02:12:43;50624.99;;;-145.72;89.62
28648;BME280;17137;51.494;-0.262;2022-11-23T02:13:19;50623.02;;;-145.72;89.41
28648;BME280;17137;51.494;-0.262;2022-11-23T02:13:50;50624.87;;;-145.72;89.71
28648;BME280;17137;51.494;-0.262;2022-11-23T02:14:21;50622.65;;;-145.72;89.88
28648;BME280;17137;51.494;-0.262;2022-11-23T02:14:51;50622.65;;;-145.72;89.92
28648;BME280;17137;51.494;-0.262;2022-11-23T02:15:21;50625.98;;;-145.72;90.20
28648;BME280;17137;51.494;-0.262;2022-11-23T02:15:53;50630.91;;;-145.72;90.21
28648;BME280;17137;51.494;-0.262;2022-11-23T02:16:24;50644.59;;;-145.72;90.31
28648;BME280;17137;51.494;-0.262;2022-11-23T02:16:57;50626.72;;;-145.72;90.68
28648;BME280;17137;51.494;-0.262;2022-11-23T02:17:28;50627.46;;;-145.72;90.67
28648;BME280;17137;51.494;-0.262;2022-11-23T02:17:59;50619.94;;;-145.72;90.64
28648;BME280;17137;51.494;-0.262;2022-11-23T02:18:33;50626.96;;;-145.72;90.56
28648;BME280;17137;51.494;-0.262;2022-11-23T02:19:10;50619.94;;;-145.72;90.13
28648;BME280;17137;51.494;-0.262;2022-11-23T02:19:47;50628.69;;;-145.72;90.81
28648;BME280;17137;51.494;-0.262;2022-11-23T02:20:21;50633.62;;;-145.72;90.90
28648;BME280;17137;51.494;-0.262;2022-11-23T02:20:52;50612.79;;;-145.72;90.71
28648;BME280;17137;51.494;-0.262;2022-11-23T02:21:22;50623.64;;;-145.72;90.31
28648;BME280;17137;51.494;-0.262;2022-11-23T02:21:53;50633.25;;;-145.72;89.98
28648;BME280;17137;51.494;-0.262;2022-11-23T02:22:30;50625.24;;;-145.72;89.85
28648;BME280;17137;51.494;-0.262;2022-11-23T02:23:17;50618.70;;;-145.72;90.18
28648;BME280;17137;51.494;-0.262;2022-11-23T02:23:55;50637.57;;;-145.72;89.92
28648;BME280;17137;51.494;-0.262;2022-11-23T02:24:32;50635.35;;;-145.72;89.73
28648;BME280;17137;51.494;-0.262;2022-11-23T02:25:39;50619.57;;;-145.72;89.09
28648;BME280;17137;51.494;-0.262;2022-11-23T02:26:15;50616.48;;;-145.72;88.82
28648;BME280;17137;51.494;-0.262;2022-11-23T02:26:47;50632.14;;;-145.72;88.59
28648;BME280;17137;51.494;-0.262;2022-11-23T02:27:17;50619.81;;;-145.72;88.40
28648;BME280;17137;51.494;-0.262;2022-11-23T02:27:48;50622.16;;;-145.72;88.14
28648;BME280;17137;51.494;-0.262;2022-11-23T02:28:23;50622.53;;;-145.72;87.79
28648;BME280;17137;51.494;-0.262;2022-11-23T02:28:58;50626.47;;;-145.72;87.73
28648;BME280;17137;51.494;-0.262;2022-11-23T02:29:29;50621.29;;;-145.72;88.05
28648;BME280;17137;51.494;-0.262;2022-11-23T02:30:01;50628.32;;;-145.72;87.86
28648;BME280;17137;51.494;-0.262;2022-11-23T02:30:33;50631.77;;;-145.72;87.99
28648;BME280;17137;51.494;-0.262;2022-11-23T02:31:05;50648.91;;;-145.72;88.46
28648;BME280;17137;51.494;-0.262;2022-11-23T02:31:36;50626.96;;;-145.72;89.18
28648;BME280;17137;51.494;-0.262;2022-11-23T02:32:06;50622.16;;;-145.72;89.97
28648;BME280;17137;51.494;-0.262;2022-11-23T02:32:37;50626.22;;;-145.72;90.19
28648;BME280;17137;51.494;-0.262;2022-11-23T02:33:08;50626.35;;;-145.72;89.93
28648;BME280;17137;51.494;-0.262;2022-11-23T02:33:39;50623.02;;;-145.72;90.31
28648;BME280;17137;51.494;-0.262;2022-11-23T02:34:09;50618.58;;;-145.72;91.12
28648;BME280;17137;51.494;-0.262;2022-11-23T02:34:39;50634.48;;;-145.72;91.34
28648;BME280;17137;51.494;-0.262;2022-11-23T02:35:10;50623.88;;;-145.72;91.09
28648;BME280;17137;51.494;-0.262;2022-11-23T02:35:47;50618.58;;;-145.72;91.20
28648;BME280;17137;51.494;-0.262;2022-11-23T02:36:33;50632.39;;;-145.72;91.02
28648;BME280;17137;51.494;-0.262;2022-11-23T02:37:03;50634.85;;;-145.72;90.97
28648;BME280;17137;51.494;-0.262;2022-11-23T02:37:40;50634.11;;;-145.72;90.90
28648;BME280;17137;51.494;-0.262;2022-11-23T02:38:10;50644.84;;;-145.72;90.61
28648;BME280;17137;51.494;-0.262;2022-11-23T02:38:41;50642.00;;;-145.72;90.57
28648;BME280;17137;51.494;-0.262;2022-11-23T02:39:13;50639.91;;;-145.72;90.68
28648;BME280;17137;51.494;-0.262;2022-11-23T02:39:46;50637.44;;;-145.72;90.93
28648;BME280;17137;51.494;-0.262;2022-11-23T02:40:24;50638.80;;;-145.72;90.56
28648;BME280;17137;51.494;-0.262;2022-11-23T02:40:56;50628.69;;;-145.72;90.41
28648;BME280;17137;51.494;-0.262;2022-11-23T02:41:26;50626.47;;;-145.72;90.73
28648;BME280;17137;51.494;-0.262;2022-11-23T02:42:04;50650.88;;;-145.72;92.26
28648;BME280;17137;51.494;-0.262;2022-11-23T02:42:35;50636.21;;;-145.72;92.42